Metar z pełnej godziny Komunikat METAR ze strony awiacja.imgw.pl Metar G00 EPSC METAR EPSC 271500Z 13006KT CAVOK 02/00 Q0994 =